Time;durP1;ratioP1;P1;durP2;ratioP2;P2;SDS_P1;SDS_P2;PMS_P1;PMS_P2;Temp;Humidity;BMP_temperature;BMP_pressure;BME280_temperature;BME280_humidity;BME280_pressure;Samples;Min_cycle;Max_cycle;Signal;HPM_P1;HPM_P2
2023/03/20 00:01:48;;;;;;;25.80;14.27;;;3.90;99.90;;;;;;4161283;28;20267;-60
2023/03/20 00:03:50;;;;;;;26.77;13.23;;;3.90;99.90;;;;;;4160377;28;20266;-60
2023/03/20 00:05:51;;;;;;;30.30;15.63;;;3.90;99.90;;;;;;4148944;28;20294;-66
2023/03/20 00:07:54;;;;;;;32.90;16.27;;;3.90;99.90;;;;;;4143912;28;20310;-60
2023/03/20 00:09:56;;;;;;;29.70;15.00;;;3.90;99.90;;;;;;4145655;28;20268;-60
2023/03/20 00:11:58;;;;;;;29.10;15.13;;;3.90;99.90;;;;;;4160343;28;20313;-60
2023/03/20 00:14:08;;;;;;;29.17;15.33;;;3.90;99.90;;;;;;4161142;28;20316;-59
2023/03/20 00:16:10;;;;;;;28.30;16.08;;;3.80;99.90;;;;;;4160764;28;20263;-61
2023/03/20 00:18:18;;;;;;;28.20;15.27;;;3.80;99.90;;;;;;4160025;28;20041;-64
2023/03/20 00:20:21;;;;;;;31.77;15.43;;;3.70;99.90;;;;;;4145216;28;20314;-61
2023/03/20 00:22:22;;;;;;;27.83;14.40;;;3.70;99.90;;;;;;4145731;28;20303;-61
2023/03/20 00:24:24;;;;;;;29.53;16.27;;;3.70;99.90;;;;;;4143933;28;20357;-61
2023/03/20 00:26:34;;;;;;;27.87;15.07;;;3.60;99.90;;;;;;4145495;28;20644;-61
2023/03/20 00:28:41;;;;;;;24.00;13.90;;;3.60;99.90;;;;;;4144846;28;20342;-60
2023/03/20 00:30:43;;;;;;;26.10;13.80;;;3.60;99.90;;;;;;4148834;28;20333;-65
2023/03/20 00:32:45;;;;;;;29.23;15.20;;;3.60;99.90;;;;;;4159451;28;20702;-60
2023/03/20 00:34:47;;;;;;;26.97;14.00;;;3.60;99.90;;;;;;4159569;28;20348;-62
2023/03/20 00:36:49;;;;;;;28.53;14.10;;;3.60;99.90;;;;;;4146500;28;20825;-62
2023/03/20 00:38:50;;;;;;;26.40;13.63;;;3.60;99.90;;;;;;4145153;28;20263;-63
2023/03/20 00:40:51;;;;;;;25.97;13.97;;;3.50;99.90;;;;;;4155096;28;20317;-60
2023/03/20 00:42:58;;;;;;;26.10;13.93;;;3.40;99.90;;;;;;4153120;28;20353;-65
2023/03/20 00:45:01;;;;;;;26.90;13.47;;;3.40;99.90;;;;;;4147023;28;20317;-64
2023/03/20 00:47:16;;;;;;;26.43;13.50;;;3.40;99.90;;;;;;4148143;28;20341;-61
2023/03/20 00:49:19;;;;;;;30.60;13.87;;;3.40;99.90;;;;;;4147867;28;20638;-61
2023/03/20 00:51:20;;;;;;;25.43;13.53;;;3.40;99.90;;;;;;4152552;28;20345;-62
2023/03/20 00:53:21;;;;;;;25.47;13.80;;;3.40;99.90;;;;;;4164290;28;20742;-61
2023/03/20 00:55:26;;;;;;;24.07;12.97;;;3.40;99.90;;;;;;4163581;28;20328;-66
2023/03/20 00:57:34;;;;;;;24.57;13.00;;;3.40;99.90;;;;;;4162470;28;20274;-62
2023/03/20 00:59:40;;;;;;;27.80;13.60;;;3.40;99.90;;;;;;4163065;28;20283;-58
2023/03/20 01:01:41;;;;;;;22.00;12.50;;;3.30;99.90;;;;;;4161106;28;20321;-62
2023/03/20 01:03:43;;;;;;;24.40;12.47;;;3.30;99.90;;;;;;4146765;28;21048;-66
2023/03/20 01:05:45;;;;;;;23.53;13.23;;;3.30;99.90;;;;;;4154627;28;20413;-61
2023/03/20 01:07:47;;;;;;;23.73;12.00;;;3.20;99.90;;;;;;4151103;28;20271;-62
2023/03/20 01:09:48;;;;;;;24.40;12.60;;;3.20;99.90;;;;;;4148076;28;20283;-61
2023/03/20 01:11:49;;;;;;;26.03;13.20;;;3.10;99.90;;;;;;4146590;28;20283;-61
2023/03/20 01:13:51;;;;;;;20.53;11.93;;;3.10;99.90;;;;;;4147882;28;20268;-61
2023/03/20 01:15:54;;;;;;;27.83;13.37;;;3.00;99.90;;;;;;4146764;28;20291;-66
2023/03/20 01:17:55;;;;;;;24.83;13.67;;;3.00;99.90;;;;;;4149005;28;20267;-62
2023/03/20 01:19:56;;;;;;;26.20;14.17;;;2.90;99.90;;;;;;4147754;28;20318;-60
2023/03/20 01:21:57;;;;;;;23.03;13.33;;;2.90;99.90;;;;;;4139931;28;20298;-63
2023/03/20 01:23:58;;;;;;;23.60;12.87;;;2.90;99.90;;;;;;4160643;28;20282;-64
2023/03/20 01:25:59;;;;;;;24.67;12.53;;;2.90;99.90;;;;;;4163094;28;20283;-63
2023/03/20 01:28:01;;;;;;;28.07;13.70;;;2.80;99.90;;;;;;4163521;28;20282;-64
2023/03/20 01:30:10;;;;;;;25.67;14.33;;;2.80;99.90;;;;;;4161391;28;20267;-61
2023/03/20 01:32:16;;;;;;;28.17;14.37;;;2.80;99.90;;;;;;4156975;28;21015;-65
2023/03/20 01:34:18;;;;;;;29.33;13.97;;;2.80;99.90;;;;;;4162619;28;20681;-62
2023/03/20 01:36:22;;;;;;;27.20;12.80;;;2.80;99.90;;;;;;4152636;28;20276;-60
2023/03/20 01:38:25;;;;;;;28.97;12.87;;;2.80;99.90;;;;;;4146527;28;20264;-61
2023/03/20 01:40:34;;;;;;;25.73;13.07;;;2.90;99.90;;;;;;4147841;28;20267;-61
2023/03/20 01:42:36;;;;;;;28.57;13.63;;;2.90;99.90;;;;;;4162409;28;20299;-60
2023/03/20 01:44:37;;;;;;;25.13;14.00;;;2.90;99.90;;;;;;4163632;28;20298;-66
2023/03/20 01:46:39;;;;;;;22.40;13.73;;;2.90;99.90;;;;;;4162434;28;20340;-61
2023/03/20 01:48:49;;;;;;;22.53;12.67;;;2.90;99.90;;;;;;4163268;28;20305;-61
2023/03/20 01:50:50;;;;;;;22.05;11.43;;;2.90;99.90;;;;;;4162252;28;20286;-61
2023/03/20 01:53:25;;;;;;;25.90;13.57;;;2.90;99.90;;;;;;4162332;28;20045;-65
2023/03/20 01:55:27;;;;;;;32.00;15.10;;;3.00;99.90;;;;;;4144639;28;20271;-66
2023/03/20 01:57:28;;;;;;;26.50;14.10;;;3.00;99.90;;;;;;4159897;28;20493;-62
2023/03/20 01:59:39;;;;;;;27.20;13.30;;;3.00;99.90;;;;;;4152340;28;20280;-66
2023/03/20 02:01:42;;;;;;;27.30;14.40;;;3.00;99.90;;;;;;4150290;28;20294;-61
2023/03/20 02:03:48;;;;;;;26.70;13.63;;;3.10;99.90;;;;;;4162365;28;20709;-61
2023/03/20 02:05:50;;;;;;;26.00;13.80;;;3.10;99.90;;;;;;4156560;28;20337;-61
2023/03/20 02:08:29;;;;;;;27.50;14.70;;;3.10;99.90;;;;;;4146343;28;20271;-60
2023/03/20 02:10:30;;;;;;;23.50;12.27;;;3.20;99.90;;;;;;4131096;28;20276;-60
2023/03/20 02:12:33;;;;;;;22.20;12.03;;;3.20;99.90;;;;;;4141337;28;20327;-64
2023/03/20 02:14:35;;;;;;;24.90;12.83;;;3.20;99.90;;;;;;4157886;28;20770;-61
2023/03/20 02:16:36;;;;;;;23.37;12.27;;;3.30;99.90;;;;;;4162071;28;20290;-61
2023/03/20 02:18:40;;;;;;;25.40;11.93;;;3.30;99.90;;;;;;4163272;28;20274;-62
2023/03/20 02:20:49;;;;;;;23.33;11.90;;;3.30;99.90;;;;;;4161752;28;20649;-61
2023/03/20 02:23:07;;;;;;;24.23;11.67;;;3.30;99.90;;;;;;4163683;28;20336;-65
2023/03/20 02:25:27;;;;;;;17.43;9.40;;;3.40;99.90;;;;;;4162173;28;20271;-60
2023/03/20 02:27:59;;;;;;;23.20;11.07;;;3.40;99.90;;;;;;4162628;28;20282;-60
2023/03/20 02:30:12;;;;;;;22.33;11.03;;;3.40;99.90;;;;;;4161702;28;20336;-60
2023/03/20 02:32:32;;;;;;;21.97;11.40;;;3.40;99.90;;;;;;4161150;28;20314;-61
2023/03/20 02:34:45;;;;;;;25.07;12.77;;;3.40;99.90;;;;;;4157208;28;20341;-61
2023/03/20 02:36:52;;;;;;;24.97;12.43;;;3.40;99.90;;;;;;4157816;28;20262;-61
2023/03/20 02:39:07;;;;;;;22.60;12.17;;;3.50;99.90;;;;;;4161742;28;20704;-61
2023/03/20 02:41:36;;;;;;;26.47;12.70;;;3.50;99.90;;;;;;4162645;28;20263;-64
2023/03/20 02:43:59;;;;;;;24.23;11.93;;;3.50;99.90;;;;;;4145225;28;20303;-60
2023/03/20 02:46:08;;;;;;;22.83;12.10;;;3.50;99.90;;;;;;4145752;28;20333;-61
2023/03/20 02:48:24;;;;;;;21.70;13.03;;;3.50;99.90;;;;;;4145772;28;20275;-63
2023/03/20 02:50:35;;;;;;;23.20;11.50;;;3.50;99.90;;;;;;4145597;28;20279;-66
2023/03/20 02:52:55;;;;;;;;;;;3.50;99.90;;;;;;4152955;28;20332;-65
2023/03/20 02:55:13;;;;;;;21.98;12.40;;;3.50;99.90;;;;;;4148152;28;19972;-64
2023/03/20 02:57:24;;;;;;;29.67;13.97;;;3.60;99.90;;;;;;4146034;28;20038;-62
2023/03/20 02:59:40;;;;;;;25.60;12.23;;;3.50;99.90;;;;;;4144427;28;20325;-61
2023/03/20 03:01:51;;;;;;;30.30;13.77;;;3.50;99.90;;;;;;4148375;28;20038;-67
2023/03/20 03:03:59;;;;;;;22.30;11.70;;;3.40;99.90;;;;;;4145040;28;20326;-64
2023/03/20 03:06:24;;;;;;;25.57;12.63;;;3.40;99.90;;;;;;4156824;28;20291;-66
2023/03/20 03:08:30;;;;;;;21.93;12.10;;;3.40;99.90;;;;;;4143344;28;20301;-63
2023/03/20 03:10:44;;;;;;;24.63;12.37;;;3.40;99.90;;;;;;4162362;28;20350;-65
2023/03/20 03:12:48;;;;;;;22.60;12.57;;;3.40;99.90;;;;;;4151260;28;20280;-63
2023/03/20 03:14:54;;;;;;;21.67;11.90;;;3.50;99.90;;;;;;4154005;28;20270;-66
2023/03/20 03:16:57;;;;;;;20.73;10.83;;;3.50;99.90;;;;;;4160930;28;20333;-66
2023/03/20 03:19:17;;;;;;;25.27;12.10;;;3.60;99.90;;;;;;4161918;28;20332;-64
2023/03/20 03:21:19;;;;;;;23.13;11.55;;;3.50;99.90;;;;;;4159285;28;20673;-64
2023/03/20 03:23:31;;;;;;;16.73;10.37;;;3.50;99.90;;;;;;4146442;28;20046;-66
2023/03/20 03:25:39;;;;;;;18.87;10.60;;;3.60;99.90;;;;;;4148039;28;20321;-66
2023/03/20 03:27:44;;;;;;;22.30;12.23;;;3.50;99.90;;;;;;4146030;28;20268;-67
2023/03/20 03:29:54;;;;;;;23.17;12.03;;;3.60;99.90;;;;;;4144797;28;20263;-66
2023/03/20 03:31:56;;;;;;;20.45;11.52;;;3.60;99.90;;;;;;4145534;28;20298;-67
2023/03/20 03:34:00;;;;;;;27.50;12.80;;;3.60;99.90;;;;;;4156822;28;20377;-66
2023/03/20 03:36:27;;;;;;;29.53;12.20;;;3.50;99.90;;;;;;4149769;28;20765;-66
2023/03/20 03:38:37;;;;;;;23.20;11.93;;;3.40;99.90;;;;;;4139254;28;20276;-63
2023/03/20 03:40:44;;;;;;;23.40;12.38;;;3.40;99.90;;;;;;4129353;28;20284;-67
2023/03/20 03:42:54;;;;;;;31.20;12.23;;;3.30;99.90;;;;;;4152278;28;20091;-66
2023/03/20 03:44:55;;;;;;;29.75;14.43;;;3.30;99.90;;;;;;4161451;28;20291;-63
2023/03/20 03:47:01;;;;;;;24.40;13.07;;;3.20;99.90;;;;;;4147683;28;20050;-67
2023/03/20 03:49:04;;;;;;;36.10;14.73;;;3.20;99.90;;;;;;4158095;28;20274;-63
2023/03/20 03:51:10;;;;;;;24.90;13.63;;;3.20;99.90;;;;;;4161257;28;20811;-60
2023/03/20 03:53:13;;;;;;;34.70;14.57;;;3.30;99.90;;;;;;4161145;28;20356;-62
2023/03/20 03:55:24;;;;;;;32.37;14.63;;;3.30;99.90;;;;;;4149401;28;20329;-61
2023/03/20 03:57:28;;;;;;;;;;;3.40;99.90;;;;;;4150801;28;20735;-65
2023/03/20 03:59:34;;;;;;;29.03;13.27;;;3.40;99.90;;;;;;4144440;28;19971;-64
2023/03/20 04:01:42;;;;;;;22.70;12.83;;;3.40;99.90;;;;;;4145153;28;20291;-62
2023/03/20 04:03:52;;;;;;;22.20;12.23;;;3.40;99.90;;;;;;4151232;28;20310;-66
2023/03/20 04:05:56;;;;;;;22.53;12.77;;;3.40;99.90;;;;;;4156391;28;20321;-66
2023/03/20 04:07:59;;;;;;;29.43;12.43;;;3.40;99.90;;;;;;4146083;28;20326;-62
2023/03/20 04:10:02;;;;;;;25.47;12.73;;;3.40;99.90;;;;;;4144306;28;20271;-60
2023/03/20 04:12:03;;;;;;;21.57;12.37;;;3.40;99.90;;;;;;4145534;28;20264;-62
2023/03/20 04:14:04;;;;;;;25.10;12.30;;;3.30;99.90;;;;;;4158076;28;20329;-64
2023/03/20 04:16:06;;;;;;;23.17;11.63;;;3.30;99.90;;;;;;4155368;28;20322;-66
2023/03/20 04:18:15;;;;;;;23.60;12.90;;;3.20;99.90;;;;;;4142693;28;20816;-63
2023/03/20 04:20:16;;;;;;;23.53;12.40;;;3.10;99.90;;;;;;4144322;28;20321;-64
2023/03/20 04:22:17;;;;;;;25.77;14.03;;;3.10;99.90;;;;;;4145302;28;20267;-61
2023/03/20 04:24:19;;;;;;;30.07;14.63;;;3.00;99.90;;;;;;4152972;28;20699;-64
2023/03/20 04:26:20;;;;;;;29.80;16.57;;;3.00;99.90;;;;;;4155822;28;20278;-63
2023/03/20 04:28:21;;;;;;;28.10;14.43;;;3.00;99.90;;;;;;4144820;28;20326;-66
2023/03/20 04:30:23;;;;;;;24.90;12.90;;;2.90;99.90;;;;;;4144407;28;20670;-64
2023/03/20 04:32:24;;;;;;;23.67;13.50;;;2.90;99.90;;;;;;4150459;28;20275;-61
2023/03/20 04:34:25;;;;;;;25.40;14.10;;;2.90;99.90;;;;;;4160378;28;20437;-64
2023/03/20 04:36:27;;;;;;;27.20;15.30;;;2.90;99.90;;;;;;4159131;28;20603;-62
2023/03/20 04:38:28;;;;;;;32.03;14.20;;;2.90;99.90;;;;;;4147516;28;20325;-63
2023/03/20 04:40:30;;;;;;;28.07;13.53;;;2.90;99.90;;;;;;4149142;28;20274;-66
2023/03/20 04:42:31;;;;;;;25.53;12.83;;;3.00;99.90;;;;;;4151255;28;20271;-62
2023/03/20 04:44:32;;;;;;;39.97;15.80;;;3.00;99.90;;;;;;4154585;28;20393;-65
2023/03/20 04:46:33;;;;;;;26.23;13.20;;;3.00;99.90;;;;;;4159818;28;20279;-63
2023/03/20 04:48:34;;;;;;;37.70;15.00;;;3.10;99.90;;;;;;4154888;28;20274;-66
2023/03/20 04:50:36;;;;;;;35.43;14.97;;;3.10;99.90;;;;;;4158621;28;20279;-64
2023/03/20 04:52:37;;;;;;;38.97;16.27;;;3.10;99.90;;;;;;4143877;28;20318;-63
2023/03/20 04:54:38;;;;;;;38.30;16.70;;;3.20;99.90;;;;;;4147551;28;20272;-62
2023/03/20 04:56:39;;;;;;;37.33;15.67;;;3.10;99.90;;;;;;4149309;28;20274;-62
2023/03/20 04:58:41;;;;;;;36.07;16.03;;;3.10;99.90;;;;;;4148693;28;20333;-61
2023/03/20 05:00:43;;;;;;;37.97;16.70;;;3.10;99.90;;;;;;4144060;28;20279;-63
2023/03/20 05:02:45;;;;;;;33.10;15.77;;;3.10;99.90;;;;;;4143519;28;20678;-61
2023/03/20 05:04:46;;;;;;;52.60;24.47;;;3.10;99.90;;;;;;4143115;28;20283;-61
2023/03/20 05:06:48;;;;;;;50.03;22.97;;;3.20;99.90;;;;;;4143841;28;20362;-63
2023/03/20 05:08:49;;;;;;;51.63;21.90;;;3.20;99.90;;;;;;4144280;28;20330;-66
2023/03/20 05:10:50;;;;;;;46.90;20.40;;;3.20;99.90;;;;;;4143771;28;20264;-62
2023/03/20 05:12:51;;;;;;;45.90;18.73;;;3.20;99.90;;;;;;4143844;28;20334;-66
2023/03/20 05:14:55;;;;;;;36.37;17.20;;;3.20;99.90;;;;;;4143049;28;20271;-65
2023/03/20 05:16:56;;;;;;;40.33;17.60;;;3.10;99.90;;;;;;4143315;28;20275;-61
2023/03/20 05:18:57;;;;;;;32.90;15.77;;;3.10;99.90;;;;;;4143061;28;20549;-61
2023/03/20 05:21:00;;;;;;;35.50;18.03;;;3.10;99.90;;;;;;4143998;28;20272;-63
2023/03/20 05:23:01;;;;;;;39.60;18.87;;;3.20;99.90;;;;;;4143156;28;20322;-59
2023/03/20 05:25:03;;;;;;;33.50;16.43;;;3.20;99.90;;;;;;4145069;28;20316;-65
2023/03/20 05:27:04;;;;;;;39.90;17.90;;;3.20;99.90;;;;;;4153680;28;20271;-64
2023/03/20 05:29:07;;;;;;;33.23;16.30;;;3.40;99.90;;;;;;4144230;28;20275;-66
2023/03/20 05:31:08;;;;;;;37.87;16.63;;;3.40;99.90;;;;;;4137949;28;20535;-68
2023/03/20 05:33:09;;;;;;;40.00;16.20;;;3.40;99.90;;;;;;4144801;28;20341;-69
2023/03/20 05:35:11;;;;;;;36.93;16.53;;;3.50;99.90;;;;;;4149649;28;20278;-63
2023/03/20 05:37:12;;;;;;;37.47;17.03;;;3.50;99.90;;;;;;4163043;28;20290;-66
2023/03/20 05:39:13;;;;;;;44.40;19.90;;;3.60;99.90;;;;;;4161126;28;20259;-68
2023/03/20 05:41:15;;;;;;;32.77;15.63;;;3.70;99.90;;;;;;4156810;28;20270;-67
2023/03/20 05:43:16;;;;;;;36.33;17.37;;;3.60;99.90;;;;;;4161633;28;20316;-64
2023/03/20 05:45:17;;;;;;;32.07;15.93;;;3.70;99.90;;;;;;4162624;28;20333;-69
2023/03/20 05:47:19;;;;;;;29.53;16.03;;;3.70;99.90;;;;;;4162338;28;20321;-66
2023/03/20 05:49:20;;;;;;;39.47;17.60;;;3.70;99.90;;;;;;4160764;28;20325;-69
2023/03/20 05:51:21;;;;;;;41.67;18.37;;;3.80;99.90;;;;;;4151241;28;20275;-65
2023/03/20 05:53:22;;;;;;;41.87;19.57;;;3.90;99.90;;;;;;4148709;28;20283;-68
2023/03/20 05:55:24;;;;;;;53.10;20.53;;;4.10;99.90;;;;;;4163731;28;20271;-70
2023/03/20 05:57:25;;;;;;;46.57;19.10;;;4.30;99.90;;;;;;4160045;28;20330;-66
2023/03/20 05:59:27;;;;;;;41.97;19.17;;;4.60;99.90;;;;;;4148802;28;20341;-70
2023/03/20 06:01:28;;;;;;;42.20;19.40;;;4.70;99.90;;;;;;4151937;28;20279;-70
2023/03/20 06:03:29;;;;;;;39.67;20.20;;;5.00;99.90;;;;;;4147286;28;20337;-65
2023/03/20 06:05:30;;;;;;;34.50;18.30;;;5.40;99.90;;;;;;4145477;28;20329;-62
2023/03/20 06:07:31;;;;;;;39.53;18.73;;;5.70;99.90;;;;;;4147243;28;20287;-65
2023/03/20 06:09:33;;;;;;;37.27;18.70;;;5.80;99.90;;;;;;4144831;28;20663;-67
2023/03/20 06:11:34;;;;;;;39.80;18.27;;;5.80;99.90;;;;;;4153025;28;20397;-62
2023/03/20 06:13:35;;;;;;;47.33;17.73;;;5.80;99.90;;;;;;4162447;28;20271;-62
2023/03/20 06:15:37;;;;;;;32.87;18.10;;;6.00;99.90;;;;;;4160189;28;20275;-61
2023/03/20 06:17:38;;;;;;;31.80;17.37;;;6.20;99.90;;;;;;4163080;28;20279;-63
2023/03/20 06:19:39;;;;;;;30.40;16.20;;;6.40;99.90;;;;;;4160258;28;20564;-62
2023/03/20 06:21:40;;;;;;;33.07;16.17;;;6.70;99.90;;;;;;4162608;28;20045;-62
2023/03/20 06:23:41;;;;;;;23.80;14.20;;;6.90;99.90;;;;;;4161640;28;20103;-63
2023/03/20 06:25:42;;;;;;;29.20;14.63;;;7.10;99.90;;;;;;4163359;28;20432;-61
2023/03/20 06:27:46;;;;;;;41.27;15.13;;;7.20;99.90;;;;;;4161680;28;20038;-64
2023/03/20 06:29:47;;;;;;;28.00;15.20;;;7.30;99.90;;;;;;4162826;28;20420;-64
2023/03/20 06:31:49;;;;;;;28.13;15.03;;;7.50;99.90;;;;;;4161767;28;20087;-65
2023/03/20 06:33:51;;;;;;;27.67;15.97;;;7.60;99.90;;;;;;4161612;28;20083;-66
2023/03/20 06:35:52;;;;;;;31.00;14.70;;;7.70;99.90;;;;;;4160583;28;20088;-62
2023/03/20 06:37:53;;;;;;;29.20;15.63;;;7.70;99.90;;;;;;4161929;28;20485;-64
2023/03/20 06:39:55;;;;;;;34.57;16.37;;;7.80;99.90;;;;;;4161981;28;20025;-62
2023/03/20 06:41:56;;;;;;;32.53;16.10;;;7.70;99.90;;;;;;4161337;28;20021;-64
2023/03/20 06:43:57;;;;;;;37.20;15.00;;;7.80;99.90;;;;;;4161853;28;20088;-63
2023/03/20 06:45:58;;;;;;;34.43;15.53;;;7.70;99.90;;;;;;4161596;28;20087;-65
2023/03/20 06:47:59;;;;;;;36.87;17.27;;;7.60;99.90;;;;;;4162246;28;20429;-66
2023/03/20 06:50:01;;;;;;;27.43;15.00;;;7.40;99.90;;;;;;4161071;28;20485;-63
2023/03/20 06:52:02;;;;;;;29.80;14.40;;;7.30;99.90;;;;;;4162341;28;20041;-65
2023/03/20 06:54:03;;;;;;;30.63;15.23;;;7.30;99.90;;;;;;4159940;28;20566;-63
2023/03/20 06:56:05;;;;;;;25.70;14.87;;;7.30;99.90;;;;;;4163040;28;20436;-63
2023/03/20 06:58:06;;;;;;;39.23;17.93;;;7.40;99.90;;;;;;4161464;28;20080;-62
2023/03/20 07:00:09;;;;;;;44.63;20.50;;;7.40;99.90;;;;;;4162493;28;20042;-65
2023/03/20 07:02:10;;;;;;;43.23;19.20;;;7.30;99.90;;;;;;4161304;28;20409;-67
2023/03/20 07:04:11;;;;;;;51.83;16.93;;;7.20;99.90;;;;;;4160608;28;20083;-64
2023/03/20 07:06:12;;;;;;;40.80;18.90;;;7.30;99.90;;;;;;4160224;28;20049;-62
2023/03/20 07:08:14;;;;;;;43.40;18.00;;;7.20;99.90;;;;;;4162129;28;20029;-62
2023/03/20 07:10:16;;;;;;;42.70;17.40;;;7.30;99.90;;;;;;4160043;28;20436;-63
2023/03/20 07:12:18;;;;;;;41.80;17.73;;;7.30;99.90;;;;;;4160419;28;20470;-63
2023/03/20 07:14:21;;;;;;;41.63;17.67;;;7.30;99.90;;;;;;4161661;28;20068;-63
2023/03/20 07:16:22;;;;;;;47.07;17.83;;;7.30;99.90;;;;;;4161226;28;20037;-62
2023/03/20 07:18:24;;;;;;;43.40;17.83;;;7.40;99.90;;;;;;4162055;28;20021;-65
2023/03/20 07:20:25;;;;;;;33.57;17.37;;;7.60;99.90;;;;;;4160346;28;20045;-63
2023/03/20 07:22:28;;;;;;;31.30;15.70;;;7.80;99.90;;;;;;4161862;28;20087;-62
2023/03/20 07:24:30;;;;;;;33.97;17.23;;;7.90;99.90;;;;;;4160602;28;20041;-64
2023/03/20 07:26:32;;;;;;;25.93;15.57;;;7.90;99.90;;;;;;4162382;28;20093;-62
2023/03/20 07:28:33;;;;;;;26.80;15.80;;;7.90;99.90;;;;;;4160831;28;20084;-62
2023/03/20 07:30:34;;;;;;;25.80;16.37;;;8.10;99.90;;;;;;4161422;28;20496;-63
2023/03/20 07:32:35;;;;;;;34.23;15.90;;;8.30;99.90;;;;;;4160527;28;20079;-62
2023/03/20 07:34:36;;;;;;;27.33;15.40;;;8.40;99.90;;;;;;4162036;28;20026;-64
2023/03/20 07:36:38;;;;;;;25.60;13.90;;;8.60;99.90;;;;;;4160677;28;20025;-66
2023/03/20 07:38:39;;;;;;;21.90;12.57;;;8.90;99.90;;;;;;4159821;28;20440;-62
2023/03/20 07:40:40;;;;;;;21.53;11.30;;;9.00;99.90;;;;;;4160663;28;20037;-61
2023/03/20 07:42:41;;;;;;;22.63;12.70;;;9.30;99.90;;;;;;4161234;28;20424;-68
2023/03/20 07:44:42;;;;;;;19.07;11.60;;;9.70;99.90;;;;;;4160851;28;20049;-62
2023/03/20 07:46:46;;;;;;;20.07;11.83;;;10.10;99.90;;;;;;4159481;28;20041;-63
2023/03/20 07:48:47;;;;;;;19.07;10.80;;;10.60;99.90;;;;;;4161344;28;20163;-62
2023/03/20 07:50:48;;;;;;;17.27;10.97;;;11.00;99.90;;;;;;4160147;28;20034;-64
2023/03/20 07:52:52;;;;;;;20.20;10.60;;;11.30;99.90;;;;;;4161551;28;20484;-63
2023/03/20 07:54:53;;;;;;;18.00;9.73;;;11.50;99.90;;;;;;4160504;28;20025;-69
2023/03/20 07:56:54;;;;;;;16.83;9.33;;;11.80;99.90;;;;;;4161452;28;20099;-63
2023/03/20 07:58:56;;;;;;;16.20;9.67;;;12.00;99.90;;;;;;4160234;28;20083;-63
2023/03/20 08:00:57;;;;;;;19.37;11.43;;;12.30;99.80;;;;;;4161801;28;20360;-66
2023/03/20 08:02:58;;;;;;;17.90;10.77;;;12.50;99.10;;;;;;4160066;28;20427;-62
2023/03/20 08:04:59;;;;;;;19.17;9.73;;;12.70;98.70;;;;;;4159957;28;20095;-62
2023/03/20 08:07:01;;;;;;;20.37;9.90;;;12.60;97.60;;;;;;4158634;28;20099;-64
2023/03/20 08:09:02;;;;;;;20.50;10.03;;;12.20;97.90;;;;;;4161700;28;20087;-62
2023/03/20 08:11:03;;;;;;;21.57;10.87;;;12.00;98.00;;;;;;4160430;28;20509;-63
2023/03/20 08:13:04;;;;;;;19.53;11.97;;;12.00;98.00;;;;;;4160629;28;20370;-68
2023/03/20 08:15:06;;;;;;;35.60;14.23;;;11.90;98.00;;;;;;4160554;28;20037;-63
2023/03/20 08:17:07;;;;;;;24.57;12.47;;;11.80;98.00;;;;;;4160761;28;20081;-65
2023/03/20 08:19:09;;;;;;;35.13;13.57;;;11.70;98.10;;;;;;4161230;28;20083;-63
2023/03/20 08:21:10;;;;;;;34.47;15.00;;;11.90;98.10;;;;;;4158473;28;20092;-63
2023/03/20 08:23:11;;;;;;;35.23;16.23;;;12.00;98.20;;;;;;4161585;28;20072;-63
2023/03/20 08:25:12;;;;;;;34.07;16.73;;;12.10;98.20;;;;;;4160704;28;20107;-61
2023/03/20 08:27:13;;;;;;;32.70;16.83;;;12.20;97.90;;;;;;4161585;28;20033;-66
2023/03/20 08:29:17;;;;;;;37.27;15.87;;;12.10;97.60;;;;;;4160305;28;20029;-62
2023/03/20 08:31:19;;;;;;;34.33;16.17;;;12.10;97.60;;;;;;4159588;28;20042;-63
2023/03/20 08:33:20;;;;;;;36.07;15.27;;;12.10;97.30;;;;;;4160414;28;20033;-63
2023/03/20 08:35:21;;;;;;;28.47;13.53;;;12.10;96.90;;;;;;4161351;28;20034;-63
2023/03/20 08:37:22;;;;;;;36.40;13.13;;;12.50;96.50;;;;;;4160342;28;20432;-62
2023/03/20 08:39:23;;;;;;;21.57;10.77;;;12.60;95.80;;;;;;4161162;28;20041;-64
2023/03/20 08:41:25;;;;;;;24.77;10.33;;;12.70;95.10;;;;;;4160248;28;20075;-63
2023/03/20 08:43:26;;;;;;;26.53;9.93;;;12.70;94.80;;;;;;4160756;28;20462;-63
2023/03/20 08:45:27;;;;;;;25.07;10.67;;;12.90;94.50;;;;;;4158799;28;20140;-63
2023/03/20 08:47:28;;;;;;;28.57;10.03;;;12.90;94.10;;;;;;4160202;28;20041;-63
2023/03/20 08:49:29;;;;;;;22.13;10.50;;;12.90;93.80;;;;;;4160817;28;20091;-64
2023/03/20 08:51:32;;;;;;;20.53;9.97;;;12.90;93.60;;;;;;4160074;28;20083;-63
2023/03/20 08:53:33;;;;;;;12.30;7.77;;;12.90;93.70;;;;;;4161198;28;20091;-65
2023/03/20 08:55:34;;;;;;;18.27;8.17;;;13.20;93.10;;;;;;4160552;28;20441;-62
2023/03/20 08:57:36;;;;;;;25.20;9.00;;;13.30;92.70;;;;;;4161359;28;20543;-66
2023/03/20 08:59:37;;;;;;;16.70;7.30;;;13.30;92.40;;;;;;4159671;28;20115;-64
2023/03/20 09:01:39;;;;;;;16.83;7.47;;;13.50;92.20;;;;;;4161230;28;20072;-64
2023/03/20 09:03:40;;;;;;;17.17;6.80;;;13.70;91.80;;;;;;4160073;28;20798;-65
2023/03/20 09:05:46;;;;;;;17.13;7.30;;;13.80;91.00;;;;;;4161778;28;20053;-64
2023/03/20 09:07:48;;;;;;;16.43;8.00;;;13.90;90.70;;;;;;4162870;28;20555;-63
2023/03/20 09:09:49;;;;;;;18.27;9.00;;;14.10;90.80;;;;;;4164681;28;20025;-66
2023/03/20 09:11:50;;;;;;;21.20;8.17;;;13.90;90.40;;;;;;4162641;28;20041;-63
2023/03/20 09:13:52;;;;;;;18.27;9.17;;;13.80;90.60;;;;;;4164179;28;20104;-63
2023/03/20 09:15:54;;;;;;;19.40;9.00;;;13.70;90.70;;;;;;4162991;28;20029;-63
2023/03/20 09:17:55;;;;;;;19.10;9.23;;;13.80;90.60;;;;;;4163511;28;20107;-63
2023/03/20 09:19:57;;;;;;;18.97;9.87;;;13.70;90.40;;;;;;4163507;28;20037;-66
2023/03/20 09:21:59;;;;;;;16.50;9.43;;;13.60;90.40;;;;;;4163440;28;20026;-62
2023/03/20 09:24:00;;;;;;;20.43;10.50;;;13.50;90.80;;;;;;4163457;28;20383;-63
2023/03/20 09:26:01;;;;;;;20.60;9.97;;;13.40;90.90;;;;;;4163681;28;20079;-65
2023/03/20 09:28:02;;;;;;;19.20;10.27;;;13.40;91.00;;;;;;4164464;28;20037;-63
2023/03/20 09:30:06;;;;;;;19.20;9.57;;;13.40;91.00;;;;;;4163180;28;20033;-65
2023/03/20 09:32:10;;;;;;;27.97;11.17;;;13.40;91.30;;;;;;4164330;28;20095;-64
2023/03/20 09:34:11;;;;;;;22.83;10.17;;;13.40;91.50;;;;;;4162786;28;20037;-62
2023/03/20 09:36:14;;;;;;;20.40;8.23;;;13.50;91.50;;;;;;4163325;28;20147;-62
2023/03/20 09:38:16;;;;;;;18.97;9.60;;;13.50;91.10;;;;;;4162293;28;20049;-68
2023/03/20 09:40:30;;;;;;;17.37;10.40;;;13.40;91.50;;;;;;4163720;28;20531;-64
2023/03/20 09:42:55;;;;;;;20.57;9.97;;;13.40;91.80;;;;;;4162515;28;20481;-66
2023/03/20 09:45:02;;;;;;;15.23;9.30;;;13.40;91.80;;;;;;4163691;28;20037;-62
2023/03/20 09:47:15;;;;;;;15.10;8.77;;;13.50;91.80;;;;;;4162511;28;20087;-66
2023/03/20 09:49:39;;;;;;;23.03;9.17;;;13.60;91.60;;;;;;4163412;28;20026;-62
2023/03/20 09:51:58;;;;;;;22.33;10.17;;;13.70;91.20;;;;;;4162009;28;20049;-64
2023/03/20 09:54:15;;;;;;;18.30;9.87;;;13.90;91.50;;;;;;4163319;28;20045;-64
2023/03/20 09:56:20;;;;;;;20.87;10.13;;;14.00;91.60;;;;;;4162785;28;20026;-64
2023/03/20 09:58:26;;;;;;;18.07;9.37;;;14.00;91.70;;;;;;4163643;28;20476;-66
2023/03/20 10:00:31;;;;;;;18.50;9.80;;;14.10;91.60;;;;;;4162167;28;20086;-61
2023/03/20 10:02:55;;;;;;;15.93;9.50;;;14.10;91.50;;;;;;4163000;28;20128;-62
2023/03/20 10:04:57;;;;;;;21.07;9.23;;;14.10;91.70;;;;;;4161563;28;20084;-65
2023/03/20 10:06:58;;;;;;;17.07;9.50;;;14.10;91.70;;;;;;4163224;28;20501;-62
2023/03/20 10:09:01;;;;;;;15.53;8.97;;;14.10;91.80;;;;;;4162389;28;20029;-64
2023/03/20 10:11:31;;;;;;;19.30;9.80;;;14.30;91.70;;;;;;4163531;28;20099;-63
2023/03/20 10:13:47;;;;;;;;;;;14.40;91.10;;;;;;4162200;28;20390;-64
2023/03/20 10:16:08;;;;;;;14.97;8.90;;;14.40;91.00;;;;;;4161461;28;19971;-63
2023/03/20 10:18:16;;;;;;;11.93;7.90;;;14.50;91.20;;;;;;4161652;28;20037;-64
2023/03/20 10:20:30;;;;;;;17.43;8.57;;;14.50;91.00;;;;;;4163032;28;20029;-64
2023/03/20 10:22:37;;;;;;;11.53;6.97;;;14.50;91.10;;;;;;4162459;28;20079;-67
2023/03/20 10:25:03;;;;;;;11.93;7.13;;;14.60;90.90;;;;;;4162487;28;20103;-66
2023/03/20 10:27:22;;;;;;;13.90;7.60;;;14.70;90.80;;;;;;4124879;28;20046;-69
2023/03/20 10:30:11;;;;;;;15.07;7.43;;;14.80;90.50;;;;;;4162114;28;20095;-66
2023/03/20 10:32:38;;;;;;;15.90;7.40;;;15.00;90.00;;;;;;4127528;28;20103;-65
2023/03/20 10:35:04;;;;;;;14.33;7.83;;;15.10;90.10;;;;;;4148011;28;20079;-62
2023/03/20 10:37:37;;;;;;;12.00;7.40;;;15.10;89.60;;;;;;4162888;28;20038;-68
2023/03/20 10:40:16;;;;;;;18.33;9.00;;;15.20;89.70;;;;;;4162169;28;20095;-67
2023/03/20 10:42:23;;;;;;;15.52;8.73;;;15.30;90.40;;;;;;4162568;28;20566;-65